TAF MHTG
MHTG 090500Z 0906/1006 VRB04KT 9999 FEW012 BKN026 TX27/0920Z TN18/0912Z BECMG 0914/0916 04014KT SCT030 BECMG 1002/1004 VRB03KT=
METAR MHTG
MHTG 090600Z 36005KT 9999 BKN028 21/16 Q1021 A3015 N0SIG=
MHTG 090500Z 03004KT 9999 BKN028 21/16 Q1022 A3018 N0SIG=
MHTG 090400Z 03003KT 9999 BKN028 21/16 Q1022 A3018 N0SIG=
MHTG 090300Z 06004KT 9999 BKN028 22/16 Q1022 A3018 N0SIG=
MHTG 090200Z 03005KT 9999 BKN030 22/15 Q1021 A3015 N0SIG=
WC MHTG
WS MHTG
WV MHTG
ZCZC CCP141 090845 GG MMMXYMYX 090845 MHTGYMYX WVHO31 MHTG 090830 MHTG SIGMET 2 VALID 090830/091430 MHTG- MHTG CENTRAL AMERICAN FIR VA FUEGO PSN N1428 W09052 VA CLD OBS AT 0750Z SFC/FL150 N1431 W09053 -N1429 W09052 -N1418 W09101 -N1428 W09108 MOV SW 10-15KT FCST 1400Z VA CLD SFC/FL150 N1431 W09053 -N1429 W09052 -N1419 W09101 -N1428 W09109= NNNN
ZCZC CCP840 090329 GG MMMXYMYX 090329 MHTGYMYX WVHO31 MHTG 090320 MHTG SIGMET 1 VALID 090320/090920 MHTG- MHTG CENTRAL AMERICAN FIR VA FUEGO PSN N1428 W09052 VA CLD OBS 0210Z SFC/FL150 N1428 W09054 -N1426 W09051 -N1413 W09100 -N1422 W09109 MOV SW 15KT FCST 0800Z VA CLD SFC/FL150 N1432 W09110 -N1428 W09052 -N1426 W09052 -N1420 W09110= NNNN